This is the latest recevied weather packets stored in our database for station/object N9WHM. If no packets are shown the sender has not sent any weather packets the latest 1 day(s).
| Time | Temp. | Humidity | Pressure | Rain* | Wind** | Luminosity | Snow |
|---|---|---|---|---|---|---|---|
| 1778088890 | 12.78° C | 32% | 1018.7 hPa | 0 mm | - | 853 W/m² | - |
| 1778088284 | 12.22° C | 33% | 1018.6 hPa | 0 mm | - | 883 W/m² | - |
| 1778087980 | 12.22° C | 32% | 1019 hPa | 0 mm | - | 831 W/m² | - |
| 1778084635 | 10.56° C | 36% | 1019 hPa | 0 mm | - | 256 W/m² | - |
| 1778083721 | 11.11° C | 36% | 1018.9 hPa | 0 mm | - | 683 W/m² | - |
| 1778082813 | 11.11° C | 36% | 1019 hPa | 0 mm | - | 241 W/m² | - |
| 1778080475 | 10.56° C | 38% | 1019.1 hPa | 0 mm | - | 506 W/m² | - |
| 1778079868 | 10° C | 41% | 1019.2 hPa | 0 mm | - | 449 W/m² | - |
| 1778078655 | 9.44° C | 41% | 1019 hPa | 0 mm | - | 388 W/m² | - |
| 1778077144 | 8.89° C | 45% | 1019.1 hPa | 0 mm | - | 314 W/m² | - |
| 1778076842 | 8.33° C | 47% | 1019.1 hPa | 0 mm | - | 300 W/m² | - |
| 1778076236 | 7.78° C | 49% | 1018.9 hPa | 0 mm | - | 272 W/m² | - |
| 1778075023 | 6.67° C | 51% | 1018.8 hPa | 0 mm | - | 219 W/m² | - |
| 1778074417 | 6.11° C | 52% | 1018.9 hPa | 0 mm | - | 194 W/m² | - |
| 1778073205 | 5° C | 56% | 1019 hPa | 0 mm | - | 99 W/m² | - |
| 1778072902 | 5° C | 57% | 1018.9 hPa | 0 mm | - | 178 W/m² | - |
| 1778072296 | 4.44° C | 57% | 1018.9 hPa | 0 mm | - | 123 W/m² | - |
| 1778071994 | 3.89° C | 59% | 1018.8 hPa | 0 mm | - | 112 W/m² | - |
| 1778071389 | 3.33° C | 60% | 1018.8 hPa | 0 mm | - | 90 W/m² | - |
| 1778071087 | 3.33° C | 60% | 1018.7 hPa | 0 mm | - | 81 W/m² | - |
| 1778069877 | 2.22° C | 65% | 1018.5 hPa | 0 mm | - | 53 W/m² | - |
| 1778069271 | 1.11° C | 69% | 1018.1 hPa | 0 mm | - | 41 W/m² | - |
| 1778068666 | 0.56° C | 70% | 1017.7 hPa | 0 mm | - | 29 W/m² | - |
| 1778067759 | 1.11° C | 68% | 1017.4 hPa | 0 mm | - | 16 W/m² | - |
| 1778067154 | 1.11° C | 66% | 1017.4 hPa | 0 mm | - | 11 W/m² | - |
* Rain latest hour (hover to see other rain measurements)
** Current wind speed in m/s (hover to see current wind gust speed)